Time;durP1;ratioP1;P1;durP2;ratioP2;P2;SDS_P1;SDS_P2;PMS_P1;PMS_P2;Temp;Humidity;BMP_temperature;BMP_pressure;BME280_temperature;BME280_humidity;BME280_pressure;Samples;Min_cycle;Max_cycle;Signal;HPM_P1;HPM_P2
2022/05/25 00:03:04;;;;;;;27.88;9.73;;;21.20;99.90;;;;;;5031269;28;20052;-70
2022/05/25 00:06:10;;;;;;;26.17;10.07;;;21.20;99.90;;;;;;5030861;28;20121;-70
2022/05/25 00:09:15;;;;;;;29.77;10.27;;;21.30;99.90;;;;;;5032653;28;20064;-71
2022/05/25 00:12:21;;;;;;;21.55;9.27;;;21.30;99.90;;;;;;5030639;28;20431;-70
2022/05/25 00:15:26;;;;;;;22.92;9.50;;;21.30;99.90;;;;;;5030926;28;20052;-71
2022/05/25 00:18:30;;;;;;;25.23;10.02;;;21.30;99.90;;;;;;5030323;28;20044;-71
2022/05/25 00:21:34;;;;;;;27.98;10.95;;;21.20;99.90;;;;;;5031469;28;20052;-71
2022/05/25 00:24:37;;;;;;;18.95;9.57;;;21.10;99.90;;;;;;5030428;28;20083;-71
2022/05/25 00:27:41;;;;;;;26.63;9.18;;;21.10;99.90;;;;;;5030857;28;20385;-70
2022/05/25 00:30:46;;;;;;;26.25;9.38;;;21.00;99.90;;;;;;5011424;28;20052;-71
2022/05/25 00:33:51;;;;;;;40.97;11.55;;;21.10;99.90;;;;;;5026047;28;20825;-70
2022/05/25 00:36:54;;;;;;;29.77;10.43;;;21.10;99.90;;;;;;5030405;28;20056;-71
2022/05/25 00:39:58;;;;;;;24.45;9.38;;;20.80;99.90;;;;;;5031085;28;20504;-70
2022/05/25 00:43:03;;;;;;;25.20;11.65;;;20.80;99.90;;;;;;5030558;28;20045;-70
2022/05/25 00:46:12;;;;;;;31.48;12.07;;;20.70;99.90;;;;;;5030179;28;20044;-70
2022/05/25 00:49:29;;;;;;;30.60;11.27;;;20.60;99.90;;;;;;5031355;28;20056;-70
2022/05/25 00:52:33;;;;;;;29.88;12.07;;;20.40;99.90;;;;;;5030882;28;20060;-69
2022/05/25 00:55:37;;;;;;;26.77;10.65;;;20.40;99.90;;;;;;5030133;28;20052;-70
2022/05/25 00:59:10;;;;;;;23.65;11.15;;;20.30;99.90;;;;;;5031160;28;20041;-70
2022/05/25 01:02:14;;;;;;;31.15;11.70;;;20.20;99.90;;;;;;5031270;28;20044;-70
2022/05/25 01:05:29;;;;;;;27.17;11.20;;;20.20;99.90;;;;;;5030384;28;20413;-70
2022/05/25 01:08:54;;;;;;;28.88;10.93;;;20.20;99.90;;;;;;5029775;28;20052;-70
2022/05/25 01:12:29;;;;;;;26.42;11.32;;;20.20;99.90;;;;;;5030933;28;20053;-70
2022/05/25 01:15:50;;;;;;;34.08;11.52;;;20.10;99.90;;;;;;5030809;28;20057;-69
2022/05/25 01:19:24;;;;;;;19.60;9.85;;;20.00;99.90;;;;;;5029870;28;20400;-70
2022/05/25 01:22:31;;;;;;;24.88;10.85;;;20.00;99.90;;;;;;5030129;28;20337;-70
2022/05/25 01:25:39;;;;;;;22.70;10.30;;;19.90;99.90;;;;;;5030680;28;20064;-70
2022/05/25 01:29:04;;;;;;;24.52;10.85;;;19.90;99.90;;;;;;5029220;28;20056;-70
2022/05/25 01:32:23;;;;;;;25.17;9.85;;;19.90;99.90;;;;;;5029969;28;20163;-70
2022/05/25 01:35:45;;;;;;;22.48;10.60;;;19.90;99.90;;;;;;5029723;28;20048;-70
2022/05/25 01:38:54;;;;;;;28.15;10.23;;;19.80;99.90;;;;;;5030396;28;20056;-70
2022/05/25 01:42:04;;;;;;;25.45;10.73;;;19.80;99.90;;;;;;5030293;28;20032;-70
2022/05/25 01:45:09;;;;;;;22.25;10.43;;;19.80;99.90;;;;;;5029547;28;20060;-70
2022/05/25 01:48:16;;;;;;;19.83;10.57;;;19.80;99.90;;;;;;5029843;28;20396;-70
2022/05/25 01:51:28;;;;;;;23.05;10.25;;;19.80;99.90;;;;;;5030158;28;20527;-70
2022/05/25 01:54:46;;;;;;;23.27;9.98;;;19.80;99.90;;;;;;5029485;28;20040;-70
2022/05/25 01:57:57;;;;;;;23.02;10.10;;;19.80;99.90;;;;;;5029655;28;20088;-70
2022/05/25 02:01:01;;;;;;;16.30;9.80;;;19.80;99.90;;;;;;5030519;28;20531;-70
2022/05/25 02:04:20;;;;;;;14.88;9.00;;;19.80;99.90;;;;;;5025976;28;20049;-70
2022/05/25 02:08:02;;;;;;;25.13;9.60;;;19.80;99.90;;;;;;5029297;28;20400;-70
2022/05/25 02:11:26;;;;;;;19.03;9.57;;;19.80;99.90;;;;;;5029823;28;20057;-70
2022/05/25 02:14:30;;;;;;;22.30;10.85;;;19.80;99.90;;;;;;5031549;28;20057;-70
2022/05/25 02:17:49;;;;;;;20.40;9.45;;;19.80;99.90;;;;;;5025503;28;20048;-70
2022/05/25 02:21:26;;;;;;;15.60;9.25;;;19.80;99.90;;;;;;5029475;28;20064;-70
2022/05/25 02:24:38;;;;;;;23.30;10.63;;;19.80;99.90;;;;;;5029834;28;20191;-70
2022/05/25 02:27:55;;;;;;;22.45;10.60;;;19.80;99.90;;;;;;5009949;28;20037;-70
2022/05/25 02:31:00;;;;;;;26.92;12.35;;;19.70;99.90;;;;;;5025929;28;20048;-71
2022/05/25 02:34:09;;;;;;;23.77;10.52;;;19.70;99.90;;;;;;5029580;28;20052;-70
2022/05/25 02:37:15;;;;;;;25.23;11.13;;;19.50;99.90;;;;;;5028423;28;20049;-70
2022/05/25 02:40:20;;;;;;;23.70;10.50;;;19.60;99.90;;;;;;5032415;28;20503;-70
2022/05/25 02:43:24;;;;;;;30.35;10.38;;;19.60;99.90;;;;;;5032737;28;20097;-70
2022/05/25 02:46:28;;;;;;;26.50;9.93;;;19.60;99.90;;;;;;5032976;28;20044;-70
2022/05/25 02:49:32;;;;;;;22.08;10.07;;;19.70;99.90;;;;;;5013993;28;20064;-70
2022/05/25 02:52:36;;;;;;;20.65;10.93;;;19.80;99.90;;;;;;5027845;28;20044;-70
2022/05/25 02:55:40;;;;;;;22.75;10.68;;;19.80;99.90;;;;;;5033286;28;20057;-70
2022/05/25 02:58:44;;;;;;;23.60;10.52;;;19.90;99.90;;;;;;5033010;28;20052;-70
2022/05/25 03:01:48;;;;;;;29.42;12.23;;;19.90;99.90;;;;;;5032871;28;20056;-70
2022/05/25 03:04:52;;;;;;;23.70;10.40;;;19.80;99.90;;;;;;5032975;28;20075;-70
2022/05/25 03:07:56;;;;;;;20.45;10.38;;;19.70;99.90;;;;;;5013015;28;20409;-70
2022/05/25 03:11:00;;;;;;;24.25;10.50;;;19.60;99.90;;;;;;5031211;28;20044;-70
2022/05/25 03:14:04;;;;;;;23.83;11.15;;;19.50;99.90;;;;;;5032477;28;20052;-71
2022/05/25 03:17:14;;;;;;;22.50;11.32;;;19.40;99.90;;;;;;5032359;28;20052;-70
2022/05/25 03:20:18;;;;;;;18.67;10.35;;;19.30;99.90;;;;;;5032398;28;20037;-70
2022/05/25 03:23:22;;;;;;;24.48;11.70;;;19.20;99.90;;;;;;5032199;28;20044;-70
2022/05/25 03:26:26;;;;;;;24.92;11.18;;;19.20;99.90;;;;;;5032238;28;20068;-70
2022/05/25 03:29:30;;;;;;;28.42;11.27;;;19.10;99.90;;;;;;5032742;28;20044;-70
2022/05/25 03:32:34;;;;;;;25.85;11.35;;;19.10;99.90;;;;;;5031799;28;20052;-70
2022/05/25 03:35:38;;;;;;;30.48;12.20;;;19.00;99.90;;;;;;5032572;28;20048;-70
2022/05/25 03:38:43;;;;;;;24.88;11.50;;;18.90;99.90;;;;;;5012422;28;20504;-70
2022/05/25 03:41:47;;;;;;;26.23;11.55;;;18.80;99.90;;;;;;5026335;28;20125;-71
2022/05/25 03:44:51;;;;;;;25.95;11.27;;;18.80;99.90;;;;;;5032237;28;20040;-70
2022/05/25 03:47:55;;;;;;;30.30;12.50;;;18.80;99.90;;;;;;5012445;28;20049;-70
2022/05/25 03:51:00;;;;;;;24.50;11.90;;;18.80;99.90;;;;;;5027450;28;20048;-70
2022/05/25 03:54:04;;;;;;;31.48;11.95;;;18.80;99.90;;;;;;5032514;28;20045;-70
2022/05/25 03:57:08;;;;;;;37.47;13.25;;;18.80;99.90;;;;;;5011959;28;20057;-70
2022/05/25 04:00:13;;;;;;;23.05;12.75;;;18.80;99.90;;;;;;5030051;28;20052;-71
2022/05/25 04:03:17;;;;;;;30.50;13.65;;;18.70;99.90;;;;;;5031396;28;20049;-71
2022/05/25 04:06:21;;;;;;;26.17;12.27;;;18.60;99.90;;;;;;5032058;28;20068;-70
2022/05/25 04:09:25;;;;;;;22.48;11.98;;;18.60;99.90;;;;;;5031418;28;20052;-70
2022/05/25 04:12:29;;;;;;;26.88;12.15;;;18.60;99.90;;;;;;5031497;28;20078;-70
2022/05/25 04:15:34;;;;;;;23.63;11.43;;;18.60;99.90;;;;;;5031881;28;20559;-70
2022/05/25 04:18:38;;;;;;;24.35;11.90;;;18.60;99.90;;;;;;5028754;28;20515;-70
2022/05/25 04:21:43;;;;;;;30.77;13.80;;;18.60;99.90;;;;;;5031461;28;20117;-70
2022/05/25 04:24:47;;;;;;;19.55;11.70;;;18.70;99.90;;;;;;5031628;28;20044;-70
2022/05/25 04:27:53;;;;;;;19.42;11.45;;;18.90;99.90;;;;;;5031019;28;20068;-71
2022/05/25 04:30:57;;;;;;;23.90;11.75;;;19.00;99.90;;;;;;5030713;28;20060;-71
2022/05/25 04:34:02;;;;;;;30.73;11.10;;;19.10;99.90;;;;;;5031360;28;20056;-70
2022/05/25 04:40:37;;;;;;;20.08;9.95;;;19.90;99.90;;;;;;5030411;28;20048;-71
2022/05/25 04:43:41;;;;;;;18.08;11.43;;;19.90;99.90;;;;;;5030748;28;20049;-71
2022/05/25 04:46:48;;;;;;;21.15;11.20;;;19.60;99.90;;;;;;5030969;28;20053;-71
2022/05/25 04:49:52;;;;;;;25.90;12.15;;;19.40;99.90;;;;;;5031011;28;20044;-71
2022/05/25 04:52:59;;;;;;;26.27;12.52;;;19.30;99.90;;;;;;5030605;28;20282;-71
2022/05/25 04:59:26;;;;;;;21.83;10.90;;;20.40;99.90;;;;;;5011229;28;20044;-71
2022/05/25 05:02:31;;;;;;;15.43;9.68;;;21.00;99.90;;;;;;5024480;28;20044;-71
2022/05/25 05:05:35;;;;;;;21.30;9.85;;;21.00;99.90;;;;;;5031161;28;20041;-71
2022/05/25 05:08:39;;;;;;;20.05;9.48;;;21.60;99.90;;;;;;5011415;28;20507;-70
2022/05/25 05:11:44;;;;;;;22.10;8.65;;;23.10;99.90;;;;;;5022401;28;20052;-70
2022/05/25 05:14:48;;;;;;;19.92;9.07;;;24.20;99.90;;;;;;5030583;28;20049;-71
2022/05/25 05:17:52;;;;;;;16.10;8.68;;;23.60;99.90;;;;;;5030533;28;20112;-70
2022/05/25 05:21:13;;;;;;;16.95;9.18;;;24.30;99.90;;;;;;5029538;28;20052;-71
2022/05/25 05:24:17;;;;;;;19.40;9.10;;;23.90;99.90;;;;;;5029936;28;20032;-71
2022/05/25 05:27:21;;;;;;;16.98;8.25;;;24.90;99.90;;;;;;5030708;28;20049;-71
2022/05/25 05:30:26;;;;;;;19.98;7.82;;;24.90;99.90;;;;;;5030462;28;20060;-71
2022/05/25 05:33:31;;;;;;;15.13;8.10;;;24.60;99.90;;;;;;5030372;28;20048;-71
2022/05/25 05:36:41;;;;;;;17.35;8.25;;;24.20;99.90;;;;;;5030371;28;20048;-71
2022/05/25 05:39:48;;;;;;;15.27;7.53;;;23.00;99.90;;;;;;5030505;28;20044;-71
2022/05/25 05:42:53;;;;;;;13.90;7.68;;;23.50;99.90;;;;;;5029962;28;20044;-71
2022/05/25 05:45:57;;;;;;;15.10;7.15;;;24.30;99.90;;;;;;5030339;28;20388;-71
2022/05/25 05:49:01;;;;;;;15.48;6.40;;;25.80;99.90;;;;;;5030169;28;20340;-71
2022/05/25 05:52:06;;;;;;;15.70;6.82;;;27.30;99.90;;;;;;5030060;28;20392;-71
2022/05/25 05:55:10;;;;;;;17.17;6.55;;;28.10;99.90;;;;;;5030127;28;20712;-72
2022/05/25 05:58:14;;;;;;;14.82;6.50;;;28.80;99.90;;;;;;5030077;28;20056;-72
2022/05/25 06:01:18;;;;;;;14.65;5.85;;;28.50;99.90;;;;;;5029689;28;20049;-71
2022/05/25 06:04:22;;;;;;;15.98;6.45;;;29.00;99.90;;;;;;5029891;28;20396;-71
2022/05/25 06:07:26;;;;;;;13.05;5.90;;;29.20;99.90;;;;;;5030206;28;20049;-71
2022/05/25 06:10:30;;;;;;;20.17;6.28;;;29.20;99.90;;;;;;5029639;28;20053;-71
2022/05/25 06:13:34;;;;;;;17.83;6.40;;;29.40;99.90;;;;;;5029992;28;20060;-71
2022/05/25 06:20:00;;;;;;;14.90;6.00;;;29.50;99.90;;;;;;5030280;28;20052;-71
2022/05/25 06:23:05;;;;;;;17.70;6.50;;;28.50;99.90;;;;;;5028297;28;20048;-71
2022/05/25 06:26:09;;;;;;;14.77;6.40;;;27.20;99.90;;;;;;5031654;28;20037;-71
2022/05/25 06:29:16;;;;;;;15.00;6.30;;;27.70;99.90;;;;;;5032986;28;20068;-71
2022/05/25 06:32:23;;;;;;;16.73;6.78;;;26.70;99.90;;;;;;5032284;28;20687;-71
2022/05/25 06:35:26;;;;;;;13.38;6.05;;;25.90;99.90;;;;;;5032789;28;20037;-71
2022/05/25 06:38:30;;;;;;;18.48;6.68;;;26.50;99.90;;;;;;5030101;28;20056;-71
2022/05/25 06:41:35;;;;;;;15.77;8.05;;;27.20;99.90;;;;;;5028748;28;20060;-71
2022/05/25 06:44:44;;;;;;;16.90;8.20;;;27.50;99.90;;;;;;5029464;28;20052;-72
2022/05/25 06:47:49;;;;;;;19.88;8.48;;;26.30;99.90;;;;;;5030022;28;20068;-71
2022/05/25 06:50:54;;;;;;;19.10;7.57;;;26.40;99.90;;;;;;5031178;28;20048;-71
2022/05/25 06:53:58;;;;;;;15.43;7.07;;;27.20;99.90;;;;;;5032844;28;20527;-71
2022/05/25 06:57:03;;;;;;;15.65;6.05;;;28.40;99.90;;;;;;5027211;28;20052;-71
2022/05/25 07:00:08;;;;;;;13.27;6.15;;;28.60;99.90;;;;;;5029006;28;20052;-71
2022/05/25 07:03:12;;;;;;;18.40;6.45;;;29.10;99.90;;;;;;5026620;28;20060;-72
2022/05/25 07:06:18;;;;;;;13.18;5.70;;;27.60;99.90;;;;;;5025074;28;20044;-71
2022/05/25 07:09:23;;;;;;;20.20;5.93;;;28.00;99.90;;;;;;5031604;28;20053;-72
2022/05/25 07:12:27;;;;;;;17.90;6.57;;;28.60;99.90;;;;;;5024231;28;20511;-72
2022/05/25 07:15:30;;;;;;;13.63;4.90;;;29.90;99.90;;;;;;5031889;28;20041;-72
2022/05/25 07:18:35;;;;;;;17.85;5.90;;;31.10;99.70;;;;;;5025608;28;20052;-72
2022/05/25 07:21:40;;;;;;;15.50;5.45;;;30.70;99.30;;;;;;5029526;28;20653;-73
2022/05/25 07:24:44;;;;;;;15.00;6.18;;;31.90;98.50;;;;;;5028829;28;20049;-72
2022/05/25 07:27:48;;;;;;;14.05;4.75;;;32.30;97.40;;;;;;5029726;28;20048;-73
2022/05/25 07:30:58;;;;;;;18.23;5.45;;;32.00;97.20;;;;;;5029346;28;20044;-71
2022/05/25 07:34:13;;;;;;;11.30;4.68;;;30.30;98.00;;;;;;5026331;28;20388;-71
2022/05/25 07:37:22;;;;;;;10.45;4.35;;;30.50;98.30;;;;;;5025541;28;20052;-71
2022/05/25 07:40:31;;;;;;;14.55;4.30;;;30.40;98.00;;;;;;5026845;28;20475;-71
2022/05/25 07:43:36;;;;;;;17.92;5.65;;;28.10;99.30;;;;;;5027215;28;20045;-71
2022/05/25 07:46:41;;;;;;;11.40;4.47;;;27.50;99.90;;;;;;5030725;28;20503;-71
2022/05/25 07:49:45;;;;;;;9.82;3.67;;;29.20;98.70;;;;;;5026030;28;20056;-72
2022/05/25 07:52:51;;;;;;;10.57;3.83;;;28.80;97.80;;;;;;5031241;28;20048;-72
2022/05/25 07:55:57;;;;;;;13.85;3.92;;;29.60;96.70;;;;;;5029838;28;20052;-71
2022/05/25 07:59:03;;;;;;;10.35;3.25;;;28.00;98.10;;;;;;5022152;28;20041;-71
2022/05/25 08:05:49;;;;;;;12.85;4.28;;;27.90;98.90;;;;;;5026633;28;20037;-72
2022/05/25 08:08:55;;;;;;;13.23;4.18;;;27.10;99.60;;;;;;5029333;28;20040;-71
2022/05/25 08:12:01;;;;;;;10.18;4.38;;;27.20;99.70;;;;;;5028705;28;20048;-70
2022/05/25 08:15:08;;;;;;;11.48;5.13;;;26.30;99.80;;;;;;5028872;28;20068;-71
2022/05/25 08:18:15;;;;;;;14.38;5.47;;;26.10;99.90;;;;;;5030203;28;20061;-71
2022/05/25 08:21:20;;;;;;;9.40;4.00;;;26.60;99.90;;;;;;5027515;28;20048;-71
2022/05/25 08:24:25;;;;;;;8.23;3.78;;;27.60;99.40;;;;;;5029947;28;20052;-72
2022/05/25 08:27:28;;;;;;;14.88;4.72;;;29.80;98.30;;;;;;5029469;28;20045;-68
2022/05/25 08:30:35;;;;;;;17.60;4.53;;;27.90;98.90;;;;;;5031988;28;20056;-71
2022/05/25 08:33:40;;;;;;;10.85;3.95;;;28.50;98.70;;;;;;5031214;28;20049;-71
2022/05/25 08:36:43;;;;;;;12.00;3.63;;;29.10;98.00;;;;;;5024264;28;20056;-71
2022/05/25 08:39:48;;;;;;;16.38;4.40;;;29.50;97.50;;;;;;5026558;28;20052;-71
2022/05/25 08:43:08;;;;;;;15.40;4.03;;;30.30;96.30;;;;;;5025828;28;20036;-71
2022/05/25 08:46:16;;;;;;;9.18;4.10;;;29.60;95.90;;;;;;5026614;28;20479;-71
2022/05/25 08:49:24;;;;;;;11.95;4.30;;;30.00;95.90;;;;;;5029290;28;20069;-71
2022/05/25 08:52:28;;;;;;;13.10;5.18;;;30.20;95.60;;;;;;5024198;28;20056;-72
2022/05/25 08:56:15;;;;;;;12.20;4.20;;;32.20;93.70;;;;;;5024637;28;20044;-71
2022/05/25 08:59:54;;;;;;;14.10;5.38;;;31.70;91.90;;;;;;5021146;28;20052;-72
2022/05/25 09:03:01;;;;;;;8.73;3.55;;;29.80;94.20;;;;;;5024651;28;20040;-71
2022/05/25 09:06:47;;;;;;;42.00;5.53;;;29.50;92.50;;;;;;5029655;28;20053;-71
2022/05/25 09:09:52;;;;;;;16.58;3.70;;;31.30;92.10;;;;;;5015370;28;20484;-71
2022/05/25 09:13:12;;;;;;;7.72;3.40;;;33.60;91.10;;;;;;5028645;28;20044;-72
2022/05/25 09:16:18;;;;;;;10.07;3.60;;;31.50;90.70;;;;;;5027262;28;20052;-71
2022/05/25 09:19:28;;;;;;;8.98;3.50;;;31.50;90.60;;;;;;5023101;28;20519;-71
2022/05/25 09:22:32;;;;;;;11.30;4.20;;;31.80;90.30;;;;;;5026681;28;20050;-71
2022/05/25 09:25:38;;;;;;;9.90;3.35;;;30.40;91.80;;;;;;5023013;28;20041;-71
2022/05/25 09:28:45;;;;;;;9.68;3.25;;;30.60;92.90;;;;;;5027455;28;20048;-71
2022/05/25 09:31:55;;;;;;;8.48;3.30;;;32.20;90.90;;;;;;5028396;28;20049;-71
2022/05/25 09:35:04;;;;;;;11.57;3.60;;;34.40;89.50;;;;;;5027954;28;20056;-70
2022/05/25 09:38:13;;;;;;;15.02;3.42;;;33.70;87.60;;;;;;5020701;28;20052;-72
2022/05/25 09:41:24;;;;;;;14.65;3.28;;;30.10;91.30;;;;;;5025261;28;20049;-72
2022/05/25 09:44:29;;;;;;;9.95;3.05;;;33.00;90.80;;;;;;5026053;28;20400;-72
2022/05/25 09:47:41;;;;;;;11.10;3.15;;;36.20;85.80;;;;;;5027352;28;20048;-72
2022/05/25 09:50:51;;;;;;;11.60;3.33;;;38.60;83.60;;;;;;5030654;28;20049;-71
2022/05/25 09:54:04;;;;;;;12.45;3.15;;;33.30;84.10;;;;;;5031482;28;20053;-71
2022/05/25 09:57:38;;;;;;;9.65;2.67;;;35.30;83.80;;;;;;5032450;28;20037;-71
2022/05/25 10:00:53;;;;;;;6.45;2.90;;;35.10;82.00;;;;;;5022549;28;20050;-72
2022/05/25 10:03:59;;;;;;;10.07;3.00;;;37.30;81.90;;;;;;5033589;28;20044;-72
2022/05/25 10:07:17;;;;;;;11.15;3.03;;;36.60;80.30;;;;;;5031775;28;20053;-72
2022/05/25 10:10:44;;;;;;;9.90;3.25;;;35.20;83.00;;;;;;5032261;28;20052;-73
2022/05/25 10:13:48;;;;;;;10.32;3.30;;;35.90;79.70;;;;;;5031882;28;21308;-72
2022/05/25 10:16:55;;;;;;;8.02;3.13;;;38.50;79.00;;;;;;5031923;28;20056;-72
2022/05/25 10:20:03;;;;;;;11.05;3.13;;;37.50;79.00;;;;;;5029347;28;20044;-71
2022/05/25 10:23:27;;;;;;;8.10;2.88;;;34.20;80.50;;;;;;5025203;28;20507;-72
2022/05/25 10:26:38;;;;;;;8.70;3.05;;;36.60;79.70;;;;;;5028685;28;20511;-72
2022/05/25 10:36:58;;;;;;;13.05;3.42;;;36.00;78.40;;;;;;5029030;28;20044;-71
2022/05/25 10:40:06;;;;;;;12.93;2.88;;;35.80;78.40;;;;;;5027350;28;20514;-72
2022/05/25 10:43:17;;;;;;;12.90;2.88;;;35.80;78.90;;;;;;5029034;28;20499;-71
2022/05/25 10:46:21;;;;;;;13.18;3.92;;;34.30;81.60;;;;;;5024494;28;20040;-72
2022/05/25 10:49:34;;;;;;;7.30;2.95;;;33.70;83.30;;;;;;5026893;28;20053;-72
2022/05/25 10:52:45;;;;;;;10.52;3.40;;;34.90;82.60;;;;;;5028945;28;20044;-72
2022/05/25 10:56:08;;;;;;;10.53;3.23;;;33.40;82.50;;;;;;5028290;28;20044;-72
2022/05/25 10:59:12;;;;;;;12.43;3.30;;;34.00;81.10;;;;;;5030156;28;20056;-72
2022/05/25 11:02:26;;;;;;;8.32;3.10;;;35.00;80.00;;;;;;5029928;28;20044;-72
2022/05/25 11:06:04;;;;;;;9.32;3.22;;;33.40;81.40;;;;;;5026890;28;20044;-72
2022/05/25 11:09:20;;;;;;;8.95;3.28;;;33.90;81.80;;;;;;5027221;28;20127;-69
2022/05/25 11:12:59;;;;;;;12.38;3.65;;;33.20;81.30;;;;;;5029782;28;20052;-71
2022/05/25 11:16:26;;;;;;;10.60;3.67;;;31.90;83.20;;;;;;5027601;28;20056;-71
2022/05/25 11:19:46;;;;;;;13.27;3.45;;;32.90;83.10;;;;;;5027435;28;20049;-69
2022/05/25 11:23:20;;;;;;;18.10;3.78;;;33.10;82.70;;;;;;5026174;28;20044;-71
2022/05/25 11:26:51;;;;;;;11.77;3.53;;;32.00;83.30;;;;;;5027440;28;20036;-70
2022/05/25 11:30:10;;;;;;;10.75;3.25;;;33.30;82.10;;;;;;5030162;28;20041;-71
2022/05/25 11:33:26;;;;;;;14.63;3.53;;;35.10;81.10;;;;;;5029382;28;20099;-71
2022/05/25 11:36:49;;;;;;;9.45;3.13;;;33.40;79.40;;;;;;5024160;28;20504;-72
2022/05/25 11:40:32;;;;;;;12.25;3.25;;;36.30;81.10;;;;;;5010264;28;20076;-71
2022/05/25 11:44:02;;;;;;;9.15;3.10;;;34.00;79.00;;;;;;5007498;28;20060;-72
2022/05/25 11:47:35;;;;;;;5.80;3.08;;;33.40;81.50;;;;;;5019240;28;20056;-71
2022/05/25 11:50:57;;;;;;;8.68;3.40;;;35.20;79.70;;;;;;5019572;28;20061;-72
2022/05/25 11:54:38;;;;;;;10.98;4.10;;;32.10;81.80;;;;;;5024599;28;20065;-72
2022/05/25 11:57:53;;;;;;;10.50;3.67;;;32.60;84.20;;;;;;5024303;28;20052;-72
2022/05/25 12:01:12;;;;;;;10.55;3.35;;;32.80;82.70;;;;;;5016625;28;20052;-71
2022/05/25 12:04:55;;;;;;;9.20;3.28;;;31.90;82.30;;;;;;5014541;28;20057;-71
2022/05/25 12:08:09;;;;;;;8.88;3.40;;;33.80;80.70;;;;;;5022572;28;20045;-72
2022/05/25 12:11:26;;;;;;;7.13;2.95;;;33.00;79.20;;;;;;5021809;28;20052;-71
2022/05/25 12:15:01;;;;;;;14.90;3.55;;;34.70;79.20;;;;;;5021523;28;20052;-72
2022/05/25 12:18:38;;;;;;;16.40;3.30;;;36.00;77.70;;;;;;5021983;28;20083;-70
2022/05/25 12:21:47;;;;;;;10.70;3.50;;;32.50;78.30;;;;;;5019184;28;20342;-71
2022/05/25 12:25:00;;;;;;;9.65;3.40;;;32.00;81.00;;;;;;5021285;28;20048;-71
2022/05/25 12:28:24;;;;;;;13.10;3.80;;;31.80;80.90;;;;;;5016388;28;20048;-70
2022/05/25 12:31:32;;;;;;;7.55;3.13;;;31.60;82.40;;;;;;5021632;28;20134;-71
2022/05/25 12:34:46;;;;;;;28.25;4.15;;;32.80;82.70;;;;;;5022041;28;20053;-71
2022/05/25 12:37:53;;;;;;;11.85;3.53;;;34.50;81.10;;;;;;5021576;28;20068;-71
2022/05/25 12:41:22;;;;;;;11.43;3.53;;;33.60;81.90;;;;;;5022326;28;20434;-71
2022/05/25 12:51:36;;;;;;;14.13;3.92;;;33.50;80.50;;;;;;5021164;28;20056;-72
2022/05/25 12:54:43;;;;;;;9.65;3.70;;;33.80;81.30;;;;;;5017478;28;20056;-70
2022/05/25 12:57:50;;;;;;;10.07;3.50;;;31.90;80.90;;;;;;5017894;28;20531;-72
2022/05/25 13:01:28;;;;;;;10.52;3.30;;;33.10;82.20;;;;;;5017274;28;20062;-70
2022/05/25 13:04:54;;;;;;;9.57;2.88;;;34.30;80.20;;;;;;5018141;28;20040;-71
2022/05/25 13:07:58;;;;;;;12.48;3.30;;;34.00;82.40;;;;;;5019478;28;20048;-71
2022/05/25 13:11:03;;;;;;;8.23;3.22;;;33.60;79.70;;;;;;5023930;28;20383;-70
2022/05/25 13:14:16;;;;;;;8.95;3.72;;;33.30;82.30;;;;;;5027084;28;20049;-71
2022/05/25 13:17:40;;;;;;;12.95;3.20;;;32.50;81.20;;;;;;5022547;28;20052;-71
2022/05/25 13:20:48;;;;;;;10.80;3.58;;;32.10;82.40;;;;;;5026685;28;20040;-70
2022/05/25 13:23:52;;;;;;;10.18;3.30;;;32.10;83.10;;;;;;5027811;28;20033;-70
2022/05/25 13:27:15;;;;;;;11.85;3.75;;;32.90;83.00;;;;;;5028233;28;20368;-71
2022/05/25 13:30:30;;;;;;;13.10;4.22;;;33.90;81.30;;;;;;5025802;28;20056;-71
2022/05/25 13:33:43;;;;;;;11.95;3.50;;;34.00;82.00;;;;;;5026393;28;20388;-71
2022/05/25 13:36:55;;;;;;;12.48;3.17;;;32.90;82.40;;;;;;5026483;28;20052;-72
2022/05/25 13:39:59;;;;;;;10.45;4.60;;;33.10;83.30;;;;;;5026837;28;20048;-71
2022/05/25 13:43:07;;;;;;;7.85;2.92;;;33.50;82.10;;;;;;5027739;28;20048;-70
2022/05/25 13:46:27;;;;;;;8.95;3.40;;;33.30;81.60;;;;;;5027297;28;20037;-71
2022/05/25 13:49:43;;;;;;;11.80;4.07;;;33.30;81.10;;;;;;5027173;28;20045;-70
2022/05/25 13:52:49;;;;;;;8.38;3.40;;;33.30;81.60;;;;;;5026863;28;20088;-70
2022/05/25 13:56:01;;;;;;;14.45;3.80;;;33.90;80.30;;;;;;5025776;28;20041;-71
2022/05/25 13:59:07;;;;;;;8.65;3.50;;;33.60;81.80;;;;;;5028224;28;20036;-70
2022/05/25 14:02:27;;;;;;;12.10;3.40;;;33.10;79.80;;;;;;5026199;28;20036;-71
2022/05/25 14:05:36;;;;;;;11.43;3.30;;;31.50;82.00;;;;;;5025973;28;20049;-71
2022/05/25 14:12:18;;;;;;;13.30;3.72;;;31.00;84.50;;;;;;5025041;28;20044;-72
2022/05/25 14:15:24;;;;;;;12.38;3.45;;;31.10;83.30;;;;;;5026401;28;20049;-72
2022/05/25 14:18:30;;;;;;;10.00;3.92;;;31.00;84.50;;;;;;5026002;28;20048;-71
2022/05/25 14:21:53;;;;;;;14.95;3.30;;;30.00;81.60;;;;;;5025789;28;20044;-72
2022/05/25 14:24:59;;;;;;;8.90;2.80;;;30.20;83.70;;;;;;5026964;28;20045;-72
2022/05/25 14:28:04;;;;;;;14.25;3.63;;;29.50;83.30;;;;;;5025143;28;20045;-72
2022/05/25 14:31:08;;;;;;;24.92;3.80;;;30.20;82.80;;;;;;5024109;28;20621;-72
2022/05/25 14:34:17;;;;;;;11.52;3.60;;;29.90;80.90;;;;;;5029618;28;20060;-72
2022/05/25 14:37:27;;;;;;;11.55;3.17;;;30.00;81.20;;;;;;5029403;28;20044;-72
2022/05/25 14:40:44;;;;;;;11.45;3.03;;;30.20;81.80;;;;;;5025916;28;20040;-72
2022/05/25 14:43:48;;;;;;;11.40;3.28;;;30.50;81.10;;;;;;5035890;28;20041;-72
2022/05/25 14:46:53;;;;;;;18.65;3.30;;;30.50;82.00;;;;;;5025680;28;20476;-71
2022/05/25 14:50:21;;;;;;;9.70;3.28;;;30.40;80.80;;;;;;5030481;28;20060;-72
2022/05/25 14:53:32;;;;;;;10.18;3.47;;;30.90;81.40;;;;;;5022688;28;20045;-72
2022/05/25 14:56:37;;;;;;;7.05;3.15;;;30.80;81.70;;;;;;5028342;28;20044;-71
2022/05/25 14:59:43;;;;;;;16.77;3.38;;;30.50;79.80;;;;;;5028734;28;20044;-71
2022/05/25 15:02:58;;;;;;;7.85;3.30;;;30.40;81.40;;;;;;5025845;28;20415;-71
2022/05/25 15:06:19;;;;;;;16.13;3.05;;;30.30;81.50;;;;;;5028747;28;20695;-71
2022/05/25 15:09:37;;;;;;;16.80;4.78;;;29.90;81.30;;;;;;5025439;28;20040;-71
2022/05/25 15:12:44;;;;;;;13.40;3.03;;;29.70;81.30;;;;;;5029446;28;20036;-71
2022/05/25 15:19:11;;;;;;;10.02;2.75;;;29.80;81.60;;;;;;5025634;28;20040;-70
2022/05/25 15:22:24;;;;;;;14.35;3.10;;;30.20;83.50;;;;;;5032371;28;20044;-71
2022/05/25 15:25:32;;;;;;;11.73;3.55;;;30.50;83.00;;;;;;5026400;28;20479;-72
2022/05/25 15:28:36;;;;;;;13.35;3.08;;;30.40;81.70;;;;;;5030324;28;20053;-71
2022/05/25 15:31:40;;;;;;;13.55;3.35;;;29.70;80.80;;;;;;5032168;28;20040;-71
2022/05/25 15:34:44;;;;;;;11.07;3.00;;;29.60;81.90;;;;;;5030205;28;20045;-71
2022/05/25 15:38:04;;;;;;;21.27;3.50;;;29.70;80.90;;;;;;5029126;28;20064;-71
2022/05/25 15:41:09;;;;;;;19.67;3.60;;;29.80;83.20;;;;;;5024718;28;20380;-71
2022/05/25 15:44:13;;;;;;;15.93;4.18;;;29.90;82.90;;;;;;5025826;28;20044;-71
2022/05/25 15:47:18;;;;;;;20.95;3.95;;;30.00;82.90;;;;;;5027335;28;20052;-71
2022/05/25 15:50:22;;;;;;;15.48;3.90;;;29.80;82.10;;;;;;5029104;28;20048;-72
2022/05/25 15:53:27;;;;;;;12.35;3.85;;;29.90;82.50;;;;;;5027577;28;20068;-71
2022/05/25 15:56:32;;;;;;;10.52;3.10;;;29.90;83.00;;;;;;5024364;28;20036;-71
2022/05/25 15:59:37;;;;;;;16.63;3.63;;;29.90;81.20;;;;;;5032169;28;20052;-71
2022/05/25 16:02:45;;;;;;;7.25;2.88;;;29.50;80.00;;;;;;5031239;28;20048;-72
2022/05/25 16:05:49;;;;;;;13.10;3.40;;;29.20;81.90;;;;;;5028434;28;20540;-71
2022/05/25 16:09:14;;;;;;;11.43;2.97;;;29.10;83.80;;;;;;5030054;28;20040;-71
2022/05/25 16:12:19;;;;;;;10.57;2.90;;;28.80;84.70;;;;;;5031195;28;20056;-72
2022/05/25 16:15:23;;;;;;;17.25;3.45;;;28.30;85.20;;;;;;5029786;28;20511;-71
2022/05/25 16:18:27;;;;;;;16.60;3.65;;;28.50;85.60;;;;;;5023898;28;20085;-72
2022/05/25 16:21:32;;;;;;;12.48;3.42;;;28.60;84.70;;;;;;5030943;28;20041;-72
2022/05/25 16:24:36;;;;;;;13.80;3.38;;;28.30;84.00;;;;;;5030023;28;20480;-71
2022/05/25 16:27:40;;;;;;;12.05;3.40;;;28.20;83.80;;;;;;5025921;28;20045;-72
2022/05/25 16:30:44;;;;;;;12.73;3.20;;;28.30;83.70;;;;;;5021386;28;20080;-71
2022/05/25 16:33:49;;;;;;;10.10;3.10;;;27.90;84.30;;;;;;5029697;28;20495;-72
2022/05/25 16:36:52;;;;;;;14.20;2.88;;;27.90;85.30;;;;;;5029799;28;20495;-72
2022/05/25 16:39:56;;;;;;;11.07;3.35;;;27.70;85.10;;;;;;5029611;28;20803;-70
2022/05/25 16:43:01;;;;;;;14.73;2.92;;;27.80;86.20;;;;;;5030683;28;20040;-71
2022/05/25 16:46:06;;;;;;;10.70;3.17;;;27.70;86.20;;;;;;5030091;28;20044;-71
2022/05/25 16:49:12;;;;;;;14.77;3.20;;;27.70;85.50;;;;;;5016453;28;20044;-71
2022/05/25 16:52:17;;;;;;;8.73;3.08;;;27.70;85.90;;;;;;5031000;28;20057;-72